Aviation Digital Data Service (ADDS)

Output produced by METARs form (1158 UTC 26 March 2019)
found at http://www.aviationweather.gov/metar/data/
 
KBWI 261154Z 01009G15KT 10SM FEW075 02/M12 A3023 RMK AO2 SLP238 T00221122 10056 20017 51034
KBWI 261121Z 2612/2718 01010G17KT P6SM SKC 
     FM270100 01004KT P6SM FEW250 
     FM271500 07004KT P6SM FEW250
       
KMTN 261145Z 33005KT 10SM FEW250 02/M12 A3025
KMTN 261121Z 2612/2712 35010G18KT P6SM SKC 
     FM270100 34004KT P6SM FEW250
       
KCGE 261140Z AUTO 36010G17KT 10SM CLR 03/M09 A3018 RMK A01
KADW 261156Z AUTO 02015G20KT 10SM CLR 02/M12 A3021 RMK AO2 SLP239 T00221117 10054 20017 52035 $
TAF AMD KADW 261015Z 2610/2715 02012KT 9999 OVC055 QNH3011INS 
     TEMPO 2610/2612 01015G25KT 
     BECMG 2611/2612 01015G25KT 9999 FEW030 QNH3023INS 
     BECMG 2612/2613 02012KT 9999 SKC QNH3029INS 
     BECMG 2623/2624 02006KT 9999 SKC QNH3034INS TX10/2620Z TN01/2612Z
       
KCBE 261140Z AUTO 01006KT 10SM CLR 00/M05 A3030 RMK AO2 T00021054
KFME 261142Z AUTO 36005KT 10SM CLR 01/M11 A3026 RMK AO1
KFDK 261147Z 02010G15KT 10SM SKC 01/M09 A3028
KGAI 261156Z AUTO 01005KT 10SM CLR 00/M08 A3023 RMK AO2 SLP272 T00001083 10039 21006 53030 FZRANO
KHGR 261153Z 01011KT 10SM CLR 01/M11 A3025 RMK AO2 SLP261 70026 T00061106 10033 21006 51030
K2W6 261143Z AUTO 02008G15KT 330V060 10SM SCT065 03/M08 A3020 RMK AO1
K2G4 261145Z AUTO 36003KT 10SM CLR M05/M08 A3014 RMK AO1
KOXB 261153Z AUTO 02014G23KT 10SM CLR 04/M07 A3014 RMK AO2 PK WND 03032/1113 SLP205 70002 T00441067 10067 20044 52031
KSBY 261154Z 02010G23KT 10SM CLR 04/M10 A3016 RMK AO2 SLP214 T00391100 10067 20039 53034
KSBY 261120Z 2612/2712 02013G20KT P6SM BKN060 BKN100 
     FM261400 02014G24KT P6SM SKC 
     FM262300 04007KT P6SM SKC 
     FM270200 00000KT P6SM SKC
       
KW29 261140Z AUTO 01011G16KT 10SM CLR A3022 RMK AO2
KDMW 261140Z AUTO 36008KT 10SM CLR M01/M13 A3021 RMK AO2